createdAt,value
2023-04-11T00:00:52.798Z,12.13
2023-04-11T00:03:19.487Z,10.70
2023-04-11T00:05:48.975Z,10.97
2023-04-11T00:08:15.829Z,11.53
2023-04-11T00:10:44.311Z,11.47
2023-04-11T00:13:12.067Z,11.47
2023-04-11T00:15:38.612Z,12.67
2023-04-11T00:18:06.260Z,13.17
2023-04-11T00:20:32.767Z,10.47
2023-04-11T00:22:59.216Z,12.30
2023-04-11T00:25:26.327Z,10.73
2023-04-11T00:27:53.367Z,10.27
2023-04-11T00:30:19.911Z,12.07
2023-04-11T00:32:47.060Z,11.27
2023-04-11T00:35:13.575Z,13.90
2023-04-11T00:37:43.576Z,12.43
2023-04-11T00:40:13.383Z,11.73
2023-04-11T00:42:40.235Z,12.10
2023-04-11T00:45:07.822Z,12.87
2023-04-11T00:47:35.309Z,16.63
2023-04-11T00:50:02.426Z,13.33
2023-04-11T00:52:29.002Z,8.70
2023-04-11T00:54:57.474Z,11.23
2023-04-11T00:57:25.273Z,12.67
2023-04-11T00:59:51.906Z,10.03
2023-04-11T01:02:18.613Z,8.23
2023-04-11T01:04:45.749Z,11.80
2023-04-11T01:07:14.237Z,10.73
2023-04-11T01:09:41.926Z,12.33
2023-04-11T01:12:10.932Z,11.80
2023-04-11T01:14:38.021Z,9.10
2023-04-11T01:17:04.606Z,11.43
2023-04-11T01:19:31.154Z,15.90
2023-04-11T01:22:00.900Z,13.20
2023-04-11T01:24:27.920Z,13.80
2023-04-11T01:26:56.068Z,10.63
2023-04-11T01:29:22.877Z,11.97
2023-04-11T01:31:51.101Z,10.50
2023-04-11T01:34:18.716Z,12.73
2023-04-11T01:36:45.437Z,12.50
2023-04-11T01:39:12.027Z,13.30
2023-04-11T01:41:41.185Z,12.60
2023-04-11T01:44:07.876Z,13.07
2023-04-11T01:46:35.127Z,11.03
2023-04-11T01:49:02.609Z,11.63
2023-04-11T01:51:29.214Z,11.17
2023-04-11T01:53:55.738Z,10.93
2023-04-11T01:56:22.264Z,11.93
2023-04-11T01:58:48.813Z,9.13
2023-04-11T02:01:19.461Z,12.03
2023-04-11T02:03:46.107Z,10.70
2023-04-11T02:06:14.136Z,11.37
2023-04-11T02:08:40.610Z,11.60
2023-04-11T02:11:07.422Z,11.70
2023-04-11T02:13:35.191Z,10.97
2023-04-11T02:16:17.236Z,15.87
2023-04-11T02:18:44.982Z,12.60
2023-04-11T02:21:11.866Z,12.77
2023-04-11T02:23:38.358Z,10.63
2023-04-11T02:26:05.021Z,13.73
2023-04-11T02:28:31.528Z,11.33
2023-04-11T02:30:58.154Z,13.60
2023-04-11T02:33:25.458Z,10.27
2023-04-11T02:35:52.130Z,10.80
2023-04-11T02:38:18.648Z,10.47
2023-04-11T02:40:45.107Z,10.70
2023-04-11T02:43:11.644Z,11.53
2023-04-11T02:45:38.110Z,9.87
2023-04-11T02:48:05.473Z,13.87
2023-04-11T02:50:31.965Z,16.87
2023-04-11T02:52:58.436Z,16.70
2023-04-11T02:55:25.019Z,11.00
2023-04-11T02:57:51.584Z,10.30
2023-04-11T03:00:21.305Z,11.60
2023-04-11T03:02:48.721Z,13.30
2023-04-11T03:05:15.977Z,10.90
2023-04-11T03:07:43.735Z,14.20
2023-04-11T03:10:10.512Z,10.90
2023-04-11T03:12:36.997Z,11.70
2023-04-11T03:15:03.921Z,12.27
2023-04-11T03:17:30.428Z,10.10
2023-04-11T03:19:56.944Z,11.60
2023-04-11T03:22:23.953Z,12.17
2023-04-11T03:24:50.531Z,11.03
2023-04-11T03:27:17.031Z,12.73
2023-04-11T03:29:43.524Z,9.13
2023-04-11T03:32:10.067Z,13.10
2023-04-11T03:34:36.550Z,17.30
2023-04-11T03:37:03.051Z,13.67
2023-04-11T03:39:29.571Z,13.27
2023-04-11T03:41:57.040Z,15.57
2023-04-11T03:44:23.537Z,14.70
2023-04-11T03:46:50.050Z,13.47
2023-04-11T03:49:16.561Z,12.27
2023-04-11T03:51:43.037Z,17.87
2023-04-11T03:54:09.608Z,17.43
2023-04-11T03:56:36.117Z,13.47
2023-04-11T03:59:02.592Z,8.47
2023-04-11T04:01:29.088Z,10.13
2023-04-11T04:03:56.129Z,11.57
2023-04-11T04:06:23.049Z,10.97
2023-04-11T04:08:49.578Z,9.67
2023-04-11T04:11:16.057Z,13.13
2023-04-11T04:13:42.537Z,11.30
2023-04-11T04:16:09.383Z,10.57
2023-04-11T04:18:35.906Z,11.63
2023-04-11T04:21:02.422Z,9.73
2023-04-11T04:23:29.286Z,11.73
2023-04-11T04:25:57.347Z,9.50
2023-04-11T04:28:25.363Z,10.77
2023-04-11T04:30:53.313Z,16.07
2023-04-11T04:33:23.100Z,10.87
2023-04-11T04:35:57.355Z,11.33
2023-04-11T04:38:25.341Z,10.70
2023-04-11T04:40:54.039Z,14.37
2023-04-11T04:43:23.609Z,11.70
2023-04-11T04:45:50.427Z,11.50
2023-04-11T04:48:16.917Z,11.93
2023-04-11T04:50:44.879Z,12.20
2023-04-11T04:53:11.344Z,10.43
2023-04-11T04:55:37.847Z,9.50
2023-04-11T04:58:04.305Z,14.30
2023-04-11T05:00:30.808Z,15.93
2023-04-11T05:02:57.543Z,16.03
2023-04-11T05:05:24.253Z,13.83
2023-04-11T05:07:50.844Z,13.70
2023-04-11T05:10:17.332Z,13.00
2023-04-11T05:12:43.884Z,11.93
2023-04-11T05:15:11.083Z,12.80
2023-04-11T05:17:37.913Z,10.40
2023-04-11T05:20:07.009Z,10.20
2023-04-11T05:22:33.466Z,9.17
2023-04-11T05:25:00.748Z,9.50
2023-04-11T05:27:27.218Z,10.10
2023-04-11T05:29:53.880Z,10.67
2023-04-11T05:32:20.405Z,11.20
2023-04-11T05:34:58.703Z,12.03
2023-04-11T05:37:25.704Z,10.70
2023-04-11T05:39:52.334Z,17.50
2023-04-11T05:42:18.796Z,14.97
2023-04-11T05:44:45.318Z,13.03
2023-04-11T05:47:14.349Z,13.73
2023-04-11T05:49:40.897Z,11.73
2023-04-11T05:52:07.364Z,13.57
2023-04-11T05:54:36.359Z,13.33
2023-04-11T05:57:03.177Z,17.27
2023-04-11T05:59:31.148Z,18.93
2023-04-11T06:02:01.306Z,16.67
2023-04-11T06:04:27.966Z,18.40
2023-04-11T06:06:56.179Z,20.90
2023-04-11T06:09:22.678Z,19.07
2023-04-11T06:11:49.177Z,22.83
2023-04-11T06:14:15.733Z,18.70
2023-04-11T06:16:42.203Z,11.50
2023-04-11T06:19:08.722Z,14.07
2023-04-11T06:21:35.238Z,23.77
2023-04-11T06:24:08.608Z,11.30
2023-04-11T06:26:35.223Z,19.73
2023-04-11T06:29:05.077Z,13.83
2023-04-11T06:31:32.491Z,12.03
2023-04-11T06:34:02.561Z,13.43
2023-04-11T06:36:29.922Z,12.00
2023-04-11T06:38:56.436Z,12.83
2023-04-11T06:41:23.279Z,15.97
2023-04-11T06:43:49.835Z,17.10
2023-04-11T06:46:16.389Z,12.60
2023-04-11T06:48:42.930Z,14.00
2023-04-11T06:51:09.784Z,17.50
2023-04-11T06:53:36.525Z,16.93
2023-04-11T06:56:03.105Z,25.33
2023-04-11T06:58:29.844Z,17.63
2023-04-11T07:00:56.341Z,14.40
2023-04-11T07:03:24.414Z,9.90
2023-04-11T07:05:51.046Z,11.63
2023-04-11T07:08:17.571Z,12.37
2023-04-11T07:10:44.077Z,10.90
2023-04-11T07:13:10.555Z,14.23
2023-04-11T07:15:37.109Z,13.43
2023-04-11T07:18:03.696Z,21.23
2023-04-11T07:20:32.170Z,11.07
2023-04-11T07:22:58.988Z,14.70
2023-04-11T07:25:32.761Z,12.27
2023-04-11T07:27:59.924Z,12.93
2023-04-11T07:30:27.858Z,12.50
2023-04-11T07:32:54.411Z,13.20
2023-04-11T07:35:21.748Z,11.70
2023-04-11T07:37:48.302Z,12.80
2023-04-11T07:40:14.872Z,13.00
2023-04-11T07:42:41.946Z,11.50
2023-04-11T07:45:08.846Z,14.60
2023-04-11T07:47:35.522Z,11.97
2023-04-11T07:50:02.602Z,17.37
2023-04-11T07:52:29.313Z,26.13
2023-04-11T07:54:55.864Z,19.73
2023-04-11T07:57:22.448Z,17.83
2023-04-11T07:59:48.951Z,24.30
2023-04-11T08:02:15.584Z,24.30
2023-04-11T08:04:42.405Z,19.73
2023-04-11T08:07:09.042Z,18.43
2023-04-11T08:09:35.535Z,18.90
2023-04-11T08:12:02.712Z,21.20
2023-04-11T08:14:29.204Z,24.13
2023-04-11T08:16:55.801Z,26.43
2023-04-11T08:19:22.468Z,19.23
2023-04-11T08:21:49.053Z,22.27
2023-04-11T08:24:15.548Z,16.23
2023-04-11T08:26:42.044Z,19.77
2023-04-11T08:29:11.822Z,17.80
2023-04-11T08:31:44.802Z,20.03
2023-04-11T08:34:12.059Z,19.13
2023-04-11T08:36:38.669Z,16.00
2023-04-11T08:39:05.923Z,17.27
2023-04-11T08:41:34.825Z,26.67
2023-04-11T08:44:01.279Z,28.10
2023-04-11T08:46:31.577Z,22.10
2023-04-11T08:48:58.189Z,20.43
2023-04-11T08:51:28.814Z,17.53
2023-04-11T08:54:03.579Z,20.17
2023-04-11T08:56:30.331Z,26.23
2023-04-11T08:58:57.017Z,15.20
2023-04-11T09:01:31.941Z,16.73
2023-04-11T09:04:01.435Z,11.40
2023-04-11T09:06:29.986Z,15.67
2023-04-11T09:09:07.405Z,18.00
2023-04-11T09:11:54.082Z,13.57
2023-04-11T09:14:26.051Z,17.93
2023-04-11T09:17:12.456Z,14.83
2023-04-11T09:19:45.591Z,15.57
2023-04-11T09:22:14.890Z,13.90
2023-04-11T09:24:42.251Z,15.93
2023-04-11T09:27:20.225Z,18.20
2023-04-11T09:29:48.329Z,24.93
2023-04-11T09:32:35.599Z,14.83
2023-04-11T09:35:23.478Z,16.10
2023-04-11T09:37:55.990Z,15.23
2023-04-11T09:40:40.808Z,12.10
2023-04-11T09:43:07.391Z,11.33
2023-04-11T09:45:40.975Z,19.17
2023-04-11T09:48:12.239Z,16.13
2023-04-11T09:50:41.434Z,22.63
2023-04-11T09:53:09.665Z,19.63
2023-04-11T09:55:38.991Z,17.67
2023-04-11T09:58:10.459Z,18.30
2023-04-11T10:00:38.026Z,16.20
2023-04-11T10:03:04.779Z,21.83
2023-04-11T10:05:32.109Z,22.70
2023-04-11T10:08:29.884Z,16.50
2023-04-11T10:11:01.284Z,12.87
2023-04-11T10:13:45.780Z,13.77
2023-04-11T10:16:21.743Z,25.40
2023-04-11T10:20:52.393Z,13.57
2023-04-11T10:23:18.906Z,14.33
2023-04-11T10:25:59.560Z,12.17
2023-04-11T10:28:39.238Z,16.03
2023-04-11T10:31:16.344Z,11.60
2023-04-11T10:34:14.236Z,13.62
2023-04-11T10:38:53.694Z,12.57
2023-04-11T10:41:27.900Z,12.32
2023-04-11T10:44:20.179Z,11.73
2023-04-11T10:46:54.342Z,10.97
2023-04-11T10:49:38.256Z,11.05
2023-04-11T10:52:23.604Z,11.30
2023-04-11T10:54:55.520Z,10.75
2023-04-11T10:57:22.338Z,12.55
2023-04-11T11:00:15.031Z,21.08
2023-04-11T11:02:41.757Z,10.43
2023-04-11T11:05:20.069Z,9.98
2023-04-11T11:07:51.542Z,10.20
2023-04-11T11:10:42.989Z,6.50
2023-04-11T11:13:10.161Z,7.93
2023-04-11T11:15:37.113Z,9.80
2023-04-11T11:18:07.050Z,12.88
2023-04-11T11:20:36.692Z,10.70
2023-04-11T11:23:09.521Z,8.75
2023-04-11T11:25:36.347Z,7.72
2023-04-11T11:28:08.743Z,6.78
2023-04-11T11:30:37.613Z,12.90
2023-04-11T11:33:18.673Z,10.77
2023-04-11T11:35:59.268Z,11.20
2023-04-11T11:38:29.524Z,9.90
2023-04-11T11:40:57.628Z,11.52
2023-04-11T11:43:28.306Z,14.23
2023-04-11T11:46:14.806Z,12.85
2023-04-11T11:49:06.271Z,9.88
2023-04-11T11:51:44.982Z,12.50
2023-04-11T11:54:11.918Z,10.80
2023-04-11T11:56:39.972Z,12.37
2023-04-11T11:59:07.741Z,7.43
2023-04-11T12:01:35.845Z,6.37
2023-04-11T12:04:07.065Z,5.97
2023-04-11T12:06:33.752Z,12.65
2023-04-11T12:09:14.876Z,7.05
2023-04-11T12:11:45.676Z,7.05
2023-04-11T12:14:22.828Z,5.95
2023-04-11T12:16:53.604Z,5.75
2023-04-11T12:19:20.091Z,6.72
2023-04-11T12:21:46.567Z,6.55
2023-04-11T12:24:13.192Z,8.30
2023-04-11T12:26:52.871Z,8.32
2023-04-11T12:29:29.192Z,8.00
2023-04-11T12:31:55.753Z,10.13
2023-04-11T12:34:22.250Z,6.32
2023-04-11T12:36:48.754Z,9.27
2023-04-11T12:39:15.504Z,6.95
2023-04-11T12:41:41.997Z,7.22
2023-04-11T12:44:08.493Z,6.57
2023-04-11T12:46:35.539Z,7.30
2023-04-11T12:49:02.050Z,8.52
2023-04-11T12:51:28.595Z,6.45
2023-04-11T12:53:55.061Z,7.93
2023-04-11T12:56:21.859Z,13.85
2023-04-11T12:58:48.374Z,6.45
2023-04-11T13:01:15.708Z,5.55
2023-04-11T13:03:42.245Z,6.70
2023-04-11T13:06:09.270Z,6.35
2023-04-11T13:08:35.772Z,4.53
2023-04-11T13:11:02.283Z,4.60
2023-04-11T13:13:28.764Z,5.90
2023-04-11T13:15:55.318Z,6.53
2023-04-11T13:18:21.884Z,5.82
2023-04-11T13:20:48.389Z,7.18
2023-04-11T13:23:16.649Z,4.55
2023-04-11T13:25:43.939Z,7.10
2023-04-11T13:28:10.688Z,4.40
2023-04-11T13:30:37.189Z,5.30
2023-04-11T13:33:03.784Z,5.45
2023-04-11T13:35:30.342Z,4.03
2023-04-11T13:37:56.978Z,4.22
2023-04-11T13:40:23.477Z,4.35
2023-04-11T13:42:49.963Z,3.45
2023-04-11T13:45:16.424Z,4.50
2023-04-11T13:47:44.283Z,7.18
2023-04-11T13:50:10.850Z,6.82
2023-04-11T13:52:37.413Z,7.87
2023-04-11T13:55:04.913Z,4.40
2023-04-11T13:57:31.424Z,5.45
2023-04-11T13:59:57.915Z,6.25
2023-04-11T14:02:24.492Z,3.28
2023-04-11T14:04:51.284Z,3.62
2023-04-11T14:07:17.772Z,6.47
2023-04-11T14:09:44.721Z,5.78
2023-04-11T14:12:11.211Z,7.22
2023-04-11T14:14:37.756Z,4.60
2023-04-11T14:17:04.295Z,3.50
2023-04-11T14:19:30.784Z,3.17
2023-04-11T14:21:57.848Z,5.35
2023-04-11T14:24:24.440Z,6.87
2023-04-11T14:26:50.927Z,5.62
2023-04-11T14:29:17.615Z,3.03
2023-04-11T14:31:44.336Z,3.90
2023-04-11T14:34:10.889Z,3.22
2023-04-11T14:36:37.753Z,3.97
2023-04-11T14:39:04.596Z,2.78
2023-04-11T14:41:31.108Z,2.72
2023-04-11T14:43:57.861Z,3.53
2023-04-11T14:46:24.628Z,3.55
2023-04-11T14:48:51.157Z,6.65
2023-04-11T14:51:17.860Z,6.83
2023-04-11T14:53:49.432Z,3.17
2023-04-11T14:56:16.015Z,10.25
2023-04-11T14:58:42.473Z,6.57
2023-04-11T15:01:09.478Z,7.25
2023-04-11T15:03:36.107Z,4.03
2023-04-11T15:06:02.805Z,2.62
2023-04-11T15:08:29.305Z,5.30
2023-04-11T15:10:55.783Z,3.00
2023-04-11T15:13:22.462Z,4.43
2023-04-11T15:15:48.997Z,5.50
2023-04-11T15:18:21.984Z,4.80
2023-04-11T15:20:48.885Z,2.57
2023-04-11T15:23:15.621Z,2.80
2023-04-11T15:25:42.119Z,1.40
2023-04-11T15:28:08.907Z,2.83
2023-04-11T15:30:46.580Z,0.87
2023-04-11T15:33:13.467Z,0.50
2023-04-11T15:35:43.993Z,0.87
2023-04-11T15:38:12.341Z,0.77
2023-04-11T15:40:39.163Z,2.67
2023-04-11T15:43:06.140Z,0.70
2023-04-11T15:45:37.424Z,0.60
2023-04-11T15:48:04.368Z,0.50
2023-04-11T15:50:31.896Z,0.50
2023-04-11T15:52:58.812Z,1.40
2023-04-11T15:55:25.293Z,0.40
2023-04-11T15:57:52.218Z,0.33
2023-04-11T16:00:21.638Z,0.73
2023-04-11T16:02:49.605Z,2.87
2023-04-11T16:05:16.797Z,1.97
2023-04-11T16:07:43.291Z,0.47
2023-04-11T16:10:10.267Z,0.50
2023-04-11T16:12:37.160Z,0.83
2023-04-11T16:15:06.005Z,2.43
2023-04-11T16:17:32.802Z,0.63
2023-04-11T16:19:59.628Z,3.27
2023-04-11T16:22:26.096Z,1.67
2023-04-11T16:24:53.506Z,1.67
2023-04-11T16:27:20.061Z,2.77
2023-04-11T16:29:46.560Z,1.30
2023-04-11T16:32:13.068Z,0.90
2023-04-11T16:34:39.525Z,0.80
2023-04-11T16:37:06.036Z,0.73
2023-04-11T16:39:32.513Z,0.40
2023-04-11T16:41:59.004Z,0.30
2023-04-11T16:44:25.491Z,0.63
2023-04-11T16:46:52.002Z,1.80
2023-04-11T16:49:18.513Z,1.50
2023-04-11T16:51:44.999Z,3.27
2023-04-11T16:54:12.897Z,2.43
2023-04-11T16:56:39.953Z,5.13
2023-04-11T16:59:06.707Z,6.27
2023-04-11T17:01:33.247Z,3.17
2023-04-11T17:04:00.355Z,2.60
2023-04-11T17:06:27.256Z,1.27
2023-04-11T17:08:53.766Z,1.40
2023-04-11T17:11:20.260Z,1.03
2023-04-11T17:13:48.694Z,8.70
2023-04-11T17:16:18.891Z,0.80
2023-04-11T17:18:45.412Z,2.13
2023-04-11T17:21:11.941Z,0.67
2023-04-11T17:23:42.351Z,0.90
2023-04-11T17:26:11.905Z,0.60
2023-04-11T17:28:40.093Z,3.40
2023-04-11T17:31:14.961Z,2.53
2023-04-11T17:33:42.084Z,40.47
2023-04-11T17:36:10.781Z,18.67
2023-04-11T17:38:38.439Z,8.13
2023-04-11T17:41:14.382Z,4.17
2023-04-11T17:43:42.628Z,4.30
2023-04-11T17:46:09.464Z,4.17
2023-04-11T17:48:36.285Z,35.67
2023-04-11T17:51:07.335Z,14.00
2023-04-11T17:53:33.948Z,7.93
2023-04-11T17:56:04.912Z,15.00
2023-04-11T17:58:31.451Z,14.73
2023-04-11T18:00:57.957Z,13.10
2023-04-11T18:03:24.918Z,15.13
2023-04-11T18:05:53.101Z,11.83
2023-04-11T18:08:19.631Z,10.07
2023-04-11T18:10:46.130Z,6.80
2023-04-11T18:13:12.642Z,38.37
2023-04-11T18:15:39.170Z,38.70
2023-04-11T18:18:08.898Z,15.93
2023-04-11T18:20:35.390Z,11.60
2023-04-11T18:23:02.377Z,13.20
2023-04-11T18:25:29.300Z,12.20
2023-04-11T18:27:55.805Z,11.63
2023-04-11T18:30:22.386Z,3.90
2023-04-11T18:32:51.160Z,4.60
2023-04-11T18:35:18.433Z,2.50
2023-04-11T18:37:45.476Z,2.07
2023-04-11T18:40:13.602Z,1.70
2023-04-11T18:42:46.052Z,2.43
2023-04-11T18:45:15.158Z,2.30
2023-04-11T18:47:42.188Z,4.40
2023-04-11T18:50:08.908Z,3.70
2023-04-11T18:52:35.649Z,4.03
2023-04-11T18:55:03.771Z,3.20
2023-04-11T18:57:33.698Z,6.07
2023-04-11T19:00:12.517Z,9.27
2023-04-11T19:02:41.063Z,4.83
2023-04-11T19:05:17.531Z,3.73
2023-04-11T19:07:44.984Z,2.73
2023-04-11T19:10:12.020Z,2.07
2023-04-11T19:12:38.871Z,2.70
2023-04-11T19:15:07.276Z,1.97
2023-04-11T19:17:40.053Z,3.13
2023-04-11T19:20:11.942Z,3.50
2023-04-11T19:22:41.347Z,4.47
2023-04-11T19:25:12.099Z,4.47
2023-04-11T19:27:40.731Z,12.77
2023-04-11T19:30:09.382Z,11.53
2023-04-11T19:32:37.827Z,6.33
2023-04-11T19:35:10.992Z,3.17
2023-04-11T19:37:38.288Z,7.80
2023-04-11T19:40:06.463Z,8.67
2023-04-11T19:42:36.074Z,3.83
2023-04-11T19:45:04.099Z,7.60
2023-04-11T19:47:30.841Z,6.10
2023-04-11T19:49:58.608Z,8.13
2023-04-11T19:52:25.524Z,6.43
2023-04-11T19:54:52.990Z,8.83
2023-04-11T19:57:19.802Z,10.47
2023-04-11T19:59:46.276Z,8.23
2023-04-11T20:02:13.128Z,9.73
2023-04-11T20:04:41.776Z,6.07
2023-04-11T20:07:08.525Z,10.03
2023-04-11T20:09:36.782Z,7.63
2023-04-11T20:12:05.455Z,10.97
2023-04-11T20:14:31.977Z,9.57
2023-04-11T20:17:01.250Z,8.80
2023-04-11T20:19:28.823Z,10.77
2023-04-11T20:21:55.532Z,9.27
2023-04-11T20:24:22.076Z,9.97
2023-04-11T20:26:48.706Z,8.80
2023-04-11T20:29:17.127Z,9.10
2023-04-11T20:31:44.005Z,6.27
2023-04-11T20:34:10.835Z,11.67
2023-04-11T20:36:37.376Z,19.47
2023-04-11T20:39:04.380Z,10.90
2023-04-11T20:41:34.053Z,9.03
2023-04-11T20:44:01.164Z,11.37
2023-04-11T20:46:28.962Z,7.03
2023-04-11T20:48:55.481Z,8.37
2023-04-11T20:51:21.978Z,8.23
2023-04-11T20:53:48.475Z,8.37
2023-04-11T20:56:14.981Z,12.60
2023-04-11T20:58:41.614Z,11.07
2023-04-11T21:01:08.190Z,7.50
2023-04-11T21:03:36.665Z,6.47
2023-04-11T21:06:06.681Z,8.83
2023-04-11T21:08:36.583Z,4.87
2023-04-11T21:11:04.812Z,6.13
2023-04-11T21:13:31.316Z,3.03
2023-04-11T21:15:57.912Z,4.50
2023-04-11T21:18:24.600Z,3.33
2023-04-11T21:20:51.117Z,4.13
2023-04-11T21:23:17.682Z,7.30
2023-04-11T21:25:44.172Z,3.47
2023-04-11T21:28:10.620Z,3.87
2023-04-11T21:30:38.645Z,4.10
2023-04-11T21:33:05.306Z,3.00
2023-04-11T21:35:31.854Z,3.20
2023-04-11T21:37:58.343Z,3.67
2023-04-11T21:40:24.809Z,4.00
2023-04-11T21:42:51.289Z,6.17
2023-04-11T21:45:17.917Z,6.13
2023-04-11T21:47:45.855Z,6.27
2023-04-11T21:50:12.437Z,4.03
2023-04-11T21:52:38.919Z,9.27
2023-04-11T21:55:08.833Z,4.30
2023-04-11T21:57:35.657Z,7.00
2023-04-11T22:00:02.975Z,4.50
2023-04-11T22:02:29.932Z,3.37
2023-04-11T22:07:29.613Z,5.43
2023-04-11T22:10:08.401Z,6.17
2023-04-11T22:12:35.907Z,8.50
2023-04-11T22:15:04.477Z,8.33
2023-04-11T22:17:31.728Z,10.63
2023-04-11T22:19:58.261Z,7.83
2023-04-11T22:22:31.573Z,3.77
2023-04-11T22:24:59.548Z,6.30
2023-04-11T22:27:26.511Z,5.33
2023-04-11T22:29:56.772Z,8.00
2023-04-11T22:32:23.873Z,5.27
2023-04-11T22:34:50.405Z,4.13
2023-04-11T22:37:16.936Z,4.07
2023-04-11T22:39:43.465Z,4.37
2023-04-11T22:42:10.843Z,5.80
2023-04-11T22:44:37.380Z,5.47
2023-04-11T22:47:12.584Z,5.40
2023-04-11T22:49:42.112Z,7.57
2023-04-11T22:52:13.323Z,3.80
2023-04-11T22:54:40.344Z,4.83
2023-04-11T22:57:06.834Z,4.13
2023-04-11T22:59:33.325Z,7.50
2023-04-11T23:01:59.895Z,4.87
2023-04-11T23:04:26.485Z,5.03
2023-04-11T23:06:53.106Z,13.90
2023-04-11T23:09:20.568Z,4.33
2023-04-11T23:11:48.006Z,5.37
2023-04-11T23:14:17.191Z,9.20
2023-04-11T23:16:44.377Z,5.43
2023-04-11T23:19:11.777Z,10.13
2023-04-11T23:21:38.318Z,4.13
2023-04-11T23:24:06.161Z,8.87
2023-04-11T23:26:32.735Z,4.43
2023-04-11T23:29:04.967Z,6.93
2023-04-11T23:31:31.844Z,7.10
2023-04-11T23:33:58.752Z,5.33
2023-04-11T23:36:29.348Z,5.13
2023-04-11T23:38:56.011Z,8.93
2023-04-11T23:41:23.243Z,5.00
2023-04-11T23:43:49.720Z,10.23
2023-04-11T23:46:17.254Z,9.43
2023-04-11T23:48:44.101Z,4.20
2023-04-11T23:51:10.612Z,8.33
2023-04-11T23:53:37.252Z,5.67
2023-04-11T23:56:04.240Z,5.83
2023-04-11T23:58:30.718Z,7.30
